Salesville, Arkansas
Current Conditions -  °F | °C
As of 2:53 PM on Friday 31 Oct 2014 (Local Time) from KBPK Reporting Station
Clear Clear  
Wind Chill: 53°   Ceiling: Unl
Heat Index: 53°   Visibility: 10mi
Dew Point: 22°   Wind: 6mph
Humidity: 30%   Direction: NA
Pressure: 30.27"   Gusts: 18mph
Location:  36.2902°N, 92.3897°W
Report Text: KBPK 311953Z AUTO VRB05G16KT 10SM CLR 12/M06 A3027 RMK AO2 SLP249 T01171056
Loading
Personal Weather Stations






























Interactive Weather Map
Tropical Storm Tracking
New forecast layout! Learn more

10-Day Weather Forecast

Advertisements
Track Severe Weather on mobile